Aérodrome :
LOGIN :

S'inscrire | Disclaimer

   EN    FR    IT 

 










Légende :    VFR   VFR Marginal   IFR   IFR Intensif   IFR Très Intensif
Visi : 
Plafond : 
>= 8 km
>= 3000ft
5 à 8 km
1000 à 3000 ft
1500m à 5 km
500 à 1000 ft
800 à 1500m
200 à 500 ft
< 800m
< 200 ft
Symboles :   Orages  Brouillard  Fortes neiges  Fortes précipitations  Vent > 20 kt
SIGMETs :   Divers  Orages  Givrage  Turbulence  Onde Orograph.  Cendres Volcan.






- Altitude de l'aérodrome : 348 ft
- Code IATA : STN


EGSS - London Stansted

DERNIER METAR :
  • 161220Z 28007KT 9999 FEW027 BKN038 BKN048 19/14 Q1009

METARs EXPIRÉS :
  • 161150Z 25009KT 220V280 9999 SCT026 BKN041 19/13 Q1009
  • 161120Z AUTO 24007KT 9999 FEW023 SCT035 BKN041 19/14 Q1008
  • 161050Z AUTO 26007KT 230V300 9999 BKN022 BKN032 18/13 Q1008
  • 161020Z AUTO 26007KT 230V300 9999 BKN020 18/13 Q1008
  • 160950Z 25008KT 220V290 9999 BKN016 BKN021 17/13 Q1008
  • 160920Z 23010KT 9999 SCT015 BKN020 17/13 Q1007
  • 160850Z 24009KT 9999 BKN012 OVC022 16/13 Q1007
  • 160820Z AUTO 23009KT 200V280 9999 BKN012 16/13 Q1007
  • 160750Z AUTO 22010KT 9999 BKN010 15/13 Q1007
  • 160720Z AUTO 22012KT 9999 BKN009 OVC012 15/13 Q1007

TAF TAF EGSS
Valide du 16 à 12h jusqu'au 17 à 18h UTC


161100Z 1612/1718 23007KT 9999 SCT030
BECMG 1612/1614 29010KT
TEMPO 1612/1620 6000 SHRA
PROB30
TEMPO 1614/1620 4000 +SHRA
PROB40 1623/1706 6000
ATIS : +44 1279 669 325



MET'MAP, la Météo Aéronautique d'un coup d'oeil ! - Copyright ORBIFLY Décembre 2007 - Disclaimer

ORBIFLY MET'MAP TEAM :

Programmation & Développement : Alexandra Zaïnal
Sur une idée originale de : Baudouin d'Aumeries
Soutien technique & logistique : Manuel Goepfert
Assistance : Marc-Olivier Méhu




SOURCES & CREDITS :

   NOAA